sensor_id;sensor_type;location;lat;lon;timestamp;P1;durP1;ratioP1;P2;durP2;ratioP2
64598;SDS011;51008;51.504;11.548;2023-03-03T00:00:54;43.15;;;13.85;;
64598;SDS011;51008;51.504;11.548;2023-03-03T00:05:55;40.63;;;13.65;;
64598;SDS011;51008;51.504;11.548;2023-03-03T00:10:56;34.15;;;12.15;;
64598;SDS011;51008;51.504;11.548;2023-03-03T00:21:32;39.70;;;13.85;;
64598;SDS011;51008;51.504;11.548;2023-03-03T00:26:41;39.38;;;14.35;;
64598;SDS011;51008;51.504;11.548;2023-03-03T00:31:45;36.90;;;14.50;;
64598;SDS011;51008;51.504;11.548;2023-03-03T00:36:46;38.70;;;14.02;;
64598;SDS011;51008;51.504;11.548;2023-03-03T00:41:51;36.53;;;13.07;;
64598;SDS011;51008;51.504;11.548;2023-03-03T00:46:53;44.90;;;14.65;;
64598;SDS011;51008;51.504;11.548;2023-03-03T00:51:56;43.20;;;14.48;;
64598;SDS011;51008;51.504;11.548;2023-03-03T00:56:56;36.90;;;13.23;;
64598;SDS011;51008;51.504;11.548;2023-03-03T01:01:57;39.65;;;12.27;;
64598;SDS011;51008;51.504;11.548;2023-03-03T01:06:59;33.63;;;12.35;;
64598;SDS011;51008;51.504;11.548;2023-03-03T01:12:00;33.35;;;12.55;;
64598;SDS011;51008;51.504;11.548;2023-03-03T01:17:01;33.45;;;12.27;;
64598;SDS011;51008;51.504;11.548;2023-03-03T01:22:02;37.28;;;11.20;;
64598;SDS011;51008;51.504;11.548;2023-03-03T01:27:03;38.20;;;12.15;;
64598;SDS011;51008;51.504;11.548;2023-03-03T01:32:04;32.22;;;10.63;;
64598;SDS011;51008;51.504;11.548;2023-03-03T01:37:05;31.42;;;11.40;;
64598;SDS011;51008;51.504;11.548;2023-03-03T01:42:06;30.30;;;11.93;;
64598;SDS011;51008;51.504;11.548;2023-03-03T01:47:12;28.55;;;10.88;;
64598;SDS011;51008;51.504;11.548;2023-03-03T01:57:39;28.60;;;11.35;;
64598;SDS011;51008;51.504;11.548;2023-03-03T02:02:44;26.60;;;11.38;;
64598;SDS011;51008;51.504;11.548;2023-03-03T02:07:46;28.08;;;9.93;;
64598;SDS011;51008;51.504;11.548;2023-03-03T02:17:51;32.17;;;11.45;;
64598;SDS011;51008;51.504;11.548;2023-03-03T02:22:57;27.25;;;10.32;;
64598;SDS011;51008;51.504;11.548;2023-03-03T02:28:10;22.20;;;9.75;;
64598;SDS011;51008;51.504;11.548;2023-03-03T02:33:11;33.90;;;9.73;;
64598;SDS011;51008;51.504;11.548;2023-03-03T02:43:31;26.27;;;11.02;;
64598;SDS011;51008;51.504;11.548;2023-03-03T02:48:39;34.60;;;11.15;;
64598;SDS011;51008;51.504;11.548;2023-03-03T02:53:40;27.25;;;10.88;;
64598;SDS011;51008;51.504;11.548;2023-03-03T02:58:41;26.10;;;10.02;;
64598;SDS011;51008;51.504;11.548;2023-03-03T03:03:43;21.75;;;9.45;;
64598;SDS011;51008;51.504;11.548;2023-03-03T03:08:44;48.83;;;14.40;;
64598;SDS011;51008;51.504;11.548;2023-03-03T03:13:45;25.05;;;10.02;;
64598;SDS011;51008;51.504;11.548;2023-03-03T03:18:47;30.67;;;10.52;;
64598;SDS011;51008;51.504;11.548;2023-03-03T03:23:49;24.98;;;10.65;;
64598;SDS011;51008;51.504;11.548;2023-03-03T03:28:51;28.17;;;11.18;;
64598;SDS011;51008;51.504;11.548;2023-03-03T03:33:52;29.90;;;10.85;;
64598;SDS011;51008;51.504;11.548;2023-03-03T03:38:54;32.83;;;11.15;;
64598;SDS011;51008;51.504;11.548;2023-03-03T03:43:56;33.28;;;11.85;;
64598;SDS011;51008;51.504;11.548;2023-03-03T03:48:58;38.08;;;12.13;;
64598;SDS011;51008;51.504;11.548;2023-03-03T03:54:00;30.67;;;11.65;;
64598;SDS011;51008;51.504;11.548;2023-03-03T03:59:01;35.33;;;12.13;;
64598;SDS011;51008;51.504;11.548;2023-03-03T04:04:03;31.95;;;12.20;;
64598;SDS011;51008;51.504;11.548;2023-03-03T04:09:04;26.95;;;11.20;;
64598;SDS011;51008;51.504;11.548;2023-03-03T04:14:06;28.83;;;10.55;;
64598;SDS011;51008;51.504;11.548;2023-03-03T04:19:09;30.50;;;9.60;;
64598;SDS011;51008;51.504;11.548;2023-03-03T04:24:11;25.38;;;9.73;;
64598;SDS011;51008;51.504;11.548;2023-03-03T04:29:12;32.05;;;10.05;;
64598;SDS011;51008;51.504;11.548;2023-03-03T04:34:16;27.33;;;9.88;;
64598;SDS011;51008;51.504;11.548;2023-03-03T04:39:18;23.95;;;9.07;;
64598;SDS011;51008;51.504;11.548;2023-03-03T04:44:19;28.30;;;8.60;;
64598;SDS011;51008;51.504;11.548;2023-03-03T04:49:22;20.75;;;8.30;;
64598;SDS011;51008;51.504;11.548;2023-03-03T04:54:23;21.80;;;8.70;;
64598;SDS011;51008;51.504;11.548;2023-03-03T04:59:24;25.92;;;9.63;;
64598;SDS011;51008;51.504;11.548;2023-03-03T05:04:27;21.92;;;9.07;;
64598;SDS011;51008;51.504;11.548;2023-03-03T05:09:28;25.27;;;8.93;;
64598;SDS011;51008;51.504;11.548;2023-03-03T05:14:29;21.55;;;9.15;;
64598;SDS011;51008;51.504;11.548;2023-03-03T05:19:29;26.50;;;9.98;;
64598;SDS011;51008;51.504;11.548;2023-03-03T05:24:31;27.40;;;9.75;;
64598;SDS011;51008;51.504;11.548;2023-03-03T05:29:32;28.00;;;10.70;;
64598;SDS011;51008;51.504;11.548;2023-03-03T05:34:35;34.97;;;10.95;;
64598;SDS011;51008;51.504;11.548;2023-03-03T05:39:36;32.53;;;10.13;;
64598;SDS011;51008;51.504;11.548;2023-03-03T05:44:37;30.05;;;10.98;;
64598;SDS011;51008;51.504;11.548;2023-03-03T05:49:38;29.05;;;9.57;;
64598;SDS011;51008;51.504;11.548;2023-03-03T05:54:39;31.90;;;10.98;;
64598;SDS011;51008;51.504;11.548;2023-03-03T05:59:40;33.80;;;10.52;;
64598;SDS011;51008;51.504;11.548;2023-03-03T06:04:41;31.52;;;10.73;;
64598;SDS011;51008;51.504;11.548;2023-03-03T06:09:42;32.78;;;11.88;;
64598;SDS011;51008;51.504;11.548;2023-03-03T06:14:43;30.02;;;10.43;;
64598;SDS011;51008;51.504;11.548;2023-03-03T06:19:44;34.97;;;11.23;;
64598;SDS011;51008;51.504;11.548;2023-03-03T06:24:45;34.60;;;10.68;;
64598;SDS011;51008;51.504;11.548;2023-03-03T06:29:46;37.97;;;11.45;;
64598;SDS011;51008;51.504;11.548;2023-03-03T06:34:47;35.35;;;11.35;;
64598;SDS011;51008;51.504;11.548;2023-03-03T06:39:48;34.42;;;10.55;;
64598;SDS011;51008;51.504;11.548;2023-03-03T06:44:49;35.92;;;11.90;;
64598;SDS011;51008;51.504;11.548;2023-03-03T06:49:49;33.97;;;10.32;;
64598;SDS011;51008;51.504;11.548;2023-03-03T06:54:54;34.58;;;11.05;;
64598;SDS011;51008;51.504;11.548;2023-03-03T07:05:16;40.38;;;12.70;;
64598;SDS011;51008;51.504;11.548;2023-03-03T07:10:23;43.17;;;12.68;;
64598;SDS011;51008;51.504;11.548;2023-03-03T07:15:32;40.88;;;12.45;;
64598;SDS011;51008;51.504;11.548;2023-03-03T07:20:35;49.80;;;13.18;;
64598;SDS011;51008;51.504;11.548;2023-03-03T07:25:38;45.63;;;13.00;;
64598;SDS011;51008;51.504;11.548;2023-03-03T07:30:39;46.75;;;13.82;;
64598;SDS011;51008;51.504;11.548;2023-03-03T07:35:42;41.72;;;12.15;;
64598;SDS011;51008;51.504;11.548;2023-03-03T07:40:53;45.47;;;13.13;;
64598;SDS011;51008;51.504;11.548;2023-03-03T07:46:39;43.38;;;12.63;;
64598;SDS011;51008;51.504;11.548;2023-03-03T07:51:35;42.63;;;12.75;;
64598;SDS011;51008;51.504;11.548;2023-03-03T07:56:38;45.85;;;13.07;;
64598;SDS011;51008;51.504;11.548;2023-03-03T08:01:40;42.95;;;12.05;;
64598;SDS011;51008;51.504;11.548;2023-03-03T08:06:44;41.03;;;13.07;;
64598;SDS011;51008;51.504;11.548;2023-03-03T08:11:48;43.67;;;12.50;;
64598;SDS011;51008;51.504;11.548;2023-03-03T08:16:54;34.92;;;11.32;;
64598;SDS011;51008;51.504;11.548;2023-03-03T08:21:58;40.53;;;12.10;;
64598;SDS011;51008;51.504;11.548;2023-03-03T08:27:02;36.88;;;11.15;;
64598;SDS011;51008;51.504;11.548;2023-03-03T08:32:03;28.40;;;10.38;;
64598;SDS011;51008;51.504;11.548;2023-03-03T08:37:04;34.50;;;11.48;;
64598;SDS011;51008;51.504;11.548;2023-03-03T08:42:05;33.53;;;11.13;;
64598;SDS011;51008;51.504;11.548;2023-03-03T08:47:06;31.38;;;10.43;;
64598;SDS011;51008;51.504;11.548;2023-03-03T08:52:07;31.73;;;10.57;;
64598;SDS011;51008;51.504;11.548;2023-03-03T08:57:08;31.92;;;10.43;;
64598;SDS011;51008;51.504;11.548;2023-03-03T09:02:09;31.45;;;10.50;;
64598;SDS011;51008;51.504;11.548;2023-03-03T09:07:10;30.92;;;10.13;;
64598;SDS011;51008;51.504;11.548;2023-03-03T09:12:15;30.90;;;10.23;;
64598;SDS011;51008;51.504;11.548;2023-03-03T09:17:25;32.47;;;9.93;;
64598;SDS011;51008;51.504;11.548;2023-03-03T09:22:31;30.67;;;10.10;;
64598;SDS011;51008;51.504;11.548;2023-03-03T09:27:37;31.38;;;10.82;;
64598;SDS011;51008;51.504;11.548;2023-03-03T09:32:38;28.45;;;9.75;;
64598;SDS011;51008;51.504;11.548;2023-03-03T09:37:39;31.52;;;10.43;;
64598;SDS011;51008;51.504;11.548;2023-03-03T09:42:45;35.45;;;11.13;;
64598;SDS011;51008;51.504;11.548;2023-03-03T10:09:05;35.53;;;10.73;;
64598;SDS011;51008;51.504;11.548;2023-03-03T10:15:12;32.63;;;11.15;;
64598;SDS011;51008;51.504;11.548;2023-03-03T10:25:42;32.95;;;10.85;;
64598;SDS011;51008;51.504;11.548;2023-03-03T10:36:29;34.00;;;12.10;;
64598;SDS011;51008;51.504;11.548;2023-03-03T11:03:21;35.72;;;11.90;;
64598;SDS011;51008;51.504;11.548;2023-03-03T11:40:56;27.73;;;11.93;;
64598;SDS011;51008;51.504;11.548;2023-03-03T11:46:07;24.50;;;10.40;;
64598;SDS011;51008;51.504;11.548;2023-03-03T11:56:41;25.27;;;10.50;;
64598;SDS011;51008;51.504;11.548;2023-03-03T12:01:56;24.27;;;10.70;;
64598;SDS011;51008;51.504;11.548;2023-03-03T12:07:09;24.10;;;9.80;;
64598;SDS011;51008;51.504;11.548;2023-03-03T12:17:37;23.45;;;9.70;;
64598;SDS011;51008;51.504;11.548;2023-03-03T12:28:21;22.23;;;9.25;;
64598;SDS011;51008;51.504;11.548;2023-03-03T12:33:35;24.95;;;10.23;;
64598;SDS011;51008;51.504;11.548;2023-03-03T12:49:25;23.87;;;9.43;;
64598;SDS011;51008;51.504;11.548;2023-03-03T12:54:59;23.60;;;9.65;;
64598;SDS011;51008;51.504;11.548;2023-03-03T13:15:57;17.98;;;8.38;;
64598;SDS011;51008;51.504;11.548;2023-03-03T13:31:28;17.80;;;8.25;;
64598;SDS011;51008;51.504;11.548;2023-03-03T13:36:34;16.00;;;8.05;;
64598;SDS011;51008;51.504;11.548;2023-03-03T13:41:45;19.48;;;8.77;;
64598;SDS011;51008;51.504;11.548;2023-03-03T13:47:05;19.05;;;8.00;;
64598;SDS011;51008;51.504;11.548;2023-03-03T13:52:12;19.50;;;8.63;;
64598;SDS011;51008;51.504;11.548;2023-03-03T13:57:35;16.35;;;8.18;;
64598;SDS011;51008;51.504;11.548;2023-03-03T14:19:29;15.32;;;7.38;;
64598;SDS011;51008;51.504;11.548;2023-03-03T14:35:21;19.25;;;8.60;;
64598;SDS011;51008;51.504;11.548;2023-03-03T14:40:22;17.17;;;8.43;;
64598;SDS011;51008;51.504;11.548;2023-03-03T14:45:37;14.80;;;6.90;;
64598;SDS011;51008;51.504;11.548;2023-03-03T14:50:40;15.70;;;7.63;;
64598;SDS011;51008;51.504;11.548;2023-03-03T14:55:43;17.45;;;7.68;;
64598;SDS011;51008;51.504;11.548;2023-03-03T15:00:46;18.02;;;7.63;;
64598;SDS011;51008;51.504;11.548;2023-03-03T15:05:49;17.30;;;7.45;;
64598;SDS011;51008;51.504;11.548;2023-03-03T15:10:51;16.57;;;7.63;;
64598;SDS011;51008;51.504;11.548;2023-03-03T15:21:15;16.77;;;6.80;;
64598;SDS011;51008;51.504;11.548;2023-03-03T15:31:40;14.18;;;6.97;;
64598;SDS011;51008;51.504;11.548;2023-03-03T16:30:25;14.85;;;6.70;;
64598;SDS011;51008;51.504;11.548;2023-03-03T16:35:38;13.63;;;6.38;;
64598;SDS011;51008;51.504;11.548;2023-03-03T16:40:46;14.43;;;6.60;;
64598;SDS011;51008;51.504;11.548;2023-03-03T16:45:49;12.00;;;5.78;;
64598;SDS011;51008;51.504;11.548;2023-03-03T16:56:12;13.70;;;7.25;;
64598;SDS011;51008;51.504;11.548;2023-03-03T17:06:39;17.58;;;7.68;;
64598;SDS011;51008;51.504;11.548;2023-03-03T17:11:49;17.75;;;8.43;;
64598;SDS011;51008;51.504;11.548;2023-03-03T17:22:44;13.05;;;6.57;;
64598;SDS011;51008;51.504;11.548;2023-03-03T17:44:00;15.77;;;7.63;;
64598;SDS011;51008;51.504;11.548;2023-03-03T17:49:17;17.45;;;8.73;;
64598;SDS011;51008;51.504;11.548;2023-03-03T18:05:30;21.42;;;9.60;;
64598;SDS011;51008;51.504;11.548;2023-03-03T18:11:02;27.40;;;11.07;;
64598;SDS011;51008;51.504;11.548;2023-03-03T18:21:51;30.15;;;12.63;;
64598;SDS011;51008;51.504;11.548;2023-03-03T18:27:11;31.00;;;14.05;;
64598;SDS011;51008;51.504;11.548;2023-03-03T18:32:24;36.53;;;14.73;;
64598;SDS011;51008;51.504;11.548;2023-03-03T18:37:41;34.58;;;15.05;;
64598;SDS011;51008;51.504;11.548;2023-03-03T18:42:43;33.70;;;14.18;;
64598;SDS011;51008;51.504;11.548;2023-03-03T19:03:34;39.40;;;15.70;;
64598;SDS011;51008;51.504;11.548;2023-03-03T19:08:42;47.13;;;16.83;;
64598;SDS011;51008;51.504;11.548;2023-03-03T19:14:39;44.70;;;17.95;;
64598;SDS011;51008;51.504;11.548;2023-03-03T19:19:28;53.17;;;18.67;;
64598;SDS011;51008;51.504;11.548;2023-03-03T19:24:32;53.95;;;20.08;;
64598;SDS011;51008;51.504;11.548;2023-03-03T19:40:02;56.88;;;20.30;;
64598;SDS011;51008;51.504;11.548;2023-03-03T19:45:17;59.60;;;22.38;;
64598;SDS011;51008;51.504;11.548;2023-03-03T19:50:38;57.67;;;22.02;;
64598;SDS011;51008;51.504;11.548;2023-03-03T20:01:13;60.63;;;21.85;;
64598;SDS011;51008;51.504;11.548;2023-03-03T20:06:58;62.45;;;22.02;;
64598;SDS011;51008;51.504;11.548;2023-03-03T20:12:17;77.05;;;25.27;;
64598;SDS011;51008;51.504;11.548;2023-03-03T20:23:05;81.45;;;27.00;;
64598;SDS011;51008;51.504;11.548;2023-03-03T20:34:31;67.82;;;23.52;;
64598;SDS011;51008;51.504;11.548;2023-03-03T20:45:07;70.88;;;22.65;;
64598;SDS011;51008;51.504;11.548;2023-03-03T20:55:55;58.17;;;22.98;;
64598;SDS011;51008;51.504;11.548;2023-03-03T21:01:06;52.75;;;20.17;;
64598;SDS011;51008;51.504;11.548;2023-03-03T21:06:14;60.15;;;20.45;;
64598;SDS011;51008;51.504;11.548;2023-03-03T21:11:18;55.45;;;20.83;;
64598;SDS011;51008;51.504;11.548;2023-03-03T21:21:21;57.83;;;20.40;;
64598;SDS011;51008;51.504;11.548;2023-03-03T21:37:00;48.83;;;19.00;;
64598;SDS011;51008;51.504;11.548;2023-03-03T21:42:12;51.75;;;18.80;;
64598;SDS011;51008;51.504;11.548;2023-03-03T21:47:16;49.10;;;19.60;;
64598;SDS011;51008;51.504;11.548;2023-03-03T21:52:20;52.15;;;19.00;;
64598;SDS011;51008;51.504;11.548;2023-03-03T21:57:21;43.00;;;18.08;;
64598;SDS011;51008;51.504;11.548;2023-03-03T22:02:22;48.53;;;18.05;;
64598;SDS011;51008;51.504;11.548;2023-03-03T22:07:24;47.22;;;17.88;;
64598;SDS011;51008;51.504;11.548;2023-03-03T22:12:25;57.10;;;20.10;;
64598;SDS011;51008;51.504;11.548;2023-03-03T22:17:26;43.47;;;16.88;;
64598;SDS011;51008;51.504;11.548;2023-03-03T22:22:27;41.22;;;17.88;;
64598;SDS011;51008;51.504;11.548;2023-03-03T22:27:28;46.17;;;17.77;;
64598;SDS011;51008;51.504;11.548;2023-03-03T22:32:29;45.72;;;16.52;;
64598;SDS011;51008;51.504;11.548;2023-03-03T22:37:30;37.67;;;14.65;;
64598;SDS011;51008;51.504;11.548;2023-03-03T22:42:31;45.45;;;17.10;;
64598;SDS011;51008;51.504;11.548;2023-03-03T22:47:31;48.05;;;17.77;;
64598;SDS011;51008;51.504;11.548;2023-03-03T22:52:32;43.00;;;16.27;;
64598;SDS011;51008;51.504;11.548;2023-03-03T22:57:34;46.03;;;18.45;;
64598;SDS011;51008;51.504;11.548;2023-03-03T23:02:35;49.33;;;16.48;;
64598;SDS011;51008;51.504;11.548;2023-03-03T23:07:37;44.90;;;16.30;;
64598;SDS011;51008;51.504;11.548;2023-03-03T23:12:39;42.45;;;16.70;;
64598;SDS011;51008;51.504;11.548;2023-03-03T23:17:41;41.47;;;15.48;;
64598;SDS011;51008;51.504;11.548;2023-03-03T23:22:43;47.58;;;17.00;;
64598;SDS011;51008;51.504;11.548;2023-03-03T23:27:45;44.38;;;18.52;;
64598;SDS011;51008;51.504;11.548;2023-03-03T23:32:46;52.30;;;17.35;;
64598;SDS011;51008;51.504;11.548;2023-03-03T23:37:48;47.08;;;18.35;;
64598;SDS011;51008;51.504;11.548;2023-03-03T23:42:49;51.17;;;19.08;;
64598;SDS011;51008;51.504;11.548;2023-03-03T23:47:50;47.83;;;17.83;;
64598;SDS011;51008;51.504;11.548;2023-03-03T23:52:51;49.83;;;19.10;;
64598;SDS011;51008;51.504;11.548;2023-03-03T23:57:52;48.53;;;18.02;;
